createdAt,value
2022-08-26T00:05:37.502Z,16.10
2022-08-26T00:15:40.201Z,16.00
2022-08-26T00:25:43.831Z,15.90
2022-08-26T00:35:46.469Z,15.80
2022-08-26T00:45:55.535Z,15.70
2022-08-26T00:55:59.484Z,15.60
2022-08-26T01:06:03.431Z,15.60
2022-08-26T01:16:10.694Z,15.60
2022-08-26T01:26:21.719Z,15.70
2022-08-26T01:36:23.825Z,15.60
2022-08-26T01:46:29.645Z,15.60
2022-08-26T01:56:33.420Z,15.60
2022-08-26T02:06:40.296Z,15.40
2022-08-26T02:16:45.384Z,15.40
2022-08-26T02:26:49.044Z,15.30
2022-08-26T02:36:50.994Z,15.30
2022-08-26T02:46:54.760Z,15.20
2022-08-26T02:56:56.785Z,15.00
2022-08-26T03:07:00.722Z,14.90
2022-08-26T03:17:03.678Z,14.70
2022-08-26T03:27:07.541Z,14.60
2022-08-26T03:37:09.641Z,14.50
2022-08-26T03:47:13.067Z,14.30
2022-08-26T03:57:15.021Z,14.20
2022-08-26T04:07:20.106Z,14.10
2022-08-26T04:17:24.971Z,13.90
2022-08-26T04:27:28.504Z,13.80
2022-08-26T04:37:31.316Z,13.60
2022-08-26T04:47:36.136Z,13.60
2022-08-26T04:57:38.562Z,13.40
2022-08-26T05:07:42.596Z,13.30
2022-08-26T05:17:44.516Z,13.20
2022-08-26T05:27:48.353Z,13.10
2022-08-26T05:37:50.574Z,13.10
2022-08-26T05:47:54.002Z,13.20
2022-08-26T05:57:55.927Z,13.20
2022-08-26T06:07:59.339Z,13.40
2022-08-26T06:18:01.377Z,13.60
2022-08-26T06:28:05.610Z,13.90
2022-08-26T06:38:08.778Z,14.00
2022-08-26T06:48:12.722Z,14.20
2022-08-26T06:58:16.140Z,14.40
2022-08-26T07:08:19.514Z,14.60
2022-08-26T07:18:21.793Z,14.90
2022-08-26T07:28:26.406Z,15.20
2022-08-26T07:38:28.448Z,15.50
2022-08-26T07:48:35.242Z,15.80
2022-08-26T07:58:37.808Z,16.10
2022-08-26T08:08:41.137Z,16.60
2022-08-26T08:18:43.084Z,17.00
2022-08-26T08:28:47.959Z,17.40
2022-08-26T08:38:50.339Z,17.80
2022-08-26T08:48:57.183Z,18.50
2022-08-26T08:59:11.806Z,21.70
2022-08-26T09:09:23.710Z,23.80
2022-08-26T09:19:33.405Z,25.30
2022-08-26T09:40:56.295Z,26.80
2022-08-26T09:51:03.797Z,27.10
2022-08-26T10:01:14.335Z,27.60
2022-08-26T10:11:22.309Z,29.00
2022-08-26T10:21:31.148Z,29.30
2022-08-26T10:31:40.150Z,29.20
2022-08-26T10:41:49.022Z,28.00
2022-08-26T10:51:59.379Z,28.20
2022-08-26T11:02:07.227Z,28.80
2022-08-26T11:12:10.343Z,28.70
2022-08-26T11:22:26.311Z,28.00
2022-08-26T11:32:49.688Z,27.30
2022-08-26T11:42:56.886Z,27.50
2022-08-26T11:53:03.091Z,27.20
2022-08-26T12:03:08.631Z,26.30
2022-08-26T12:13:20.464Z,25.10
2022-08-26T12:23:36.661Z,24.50
2022-08-26T12:33:38.889Z,24.10
2022-08-26T12:43:44.724Z,23.90
2022-08-26T12:53:46.745Z,24.20
2022-08-26T13:03:50.450Z,24.20
2022-08-26T13:13:55.802Z,24.40
2022-08-26T13:24:02.743Z,24.70
2022-08-26T13:34:05.170Z,24.60
2022-08-26T13:44:08.927Z,24.80
2022-08-26T13:54:10.959Z,24.90
2022-08-26T14:04:14.352Z,24.60
2022-08-26T14:14:16.395Z,25.00
2022-08-26T14:24:19.865Z,24.90
2022-08-26T14:35:07.897Z,25.00
2022-08-26T14:45:15.756Z,25.30
2022-08-26T14:55:19.983Z,24.40
2022-08-26T15:05:23.337Z,24.00
2022-08-26T15:15:25.390Z,24.40
2022-08-26T15:25:28.820Z,25.30
2022-08-26T15:35:32.980Z,26.10
2022-08-26T15:45:39.034Z,26.30
2022-08-26T15:55:41.101Z,26.30
2022-08-26T16:05:44.960Z,25.50
2022-08-26T16:15:47.684Z,24.90
2022-08-26T16:25:52.874Z,24.60
2022-08-26T16:35:54.860Z,24.20
2022-08-26T16:45:58.357Z,23.90
2022-08-26T16:56:00.483Z,23.80
2022-08-26T17:06:04.252Z,23.70
2022-08-26T17:27:46.191Z,23.40
2022-08-26T17:37:50.863Z,23.10
2022-08-26T17:47:56.042Z,23.00
2022-08-26T17:57:58.034Z,22.80
2022-08-26T18:19:57.823Z,22.40
2022-08-26T18:30:01.324Z,22.20
2022-08-26T18:40:04.554Z,22.10
2022-08-26T18:50:09.293Z,22.00
2022-08-26T19:00:36.423Z,22.00
2022-08-26T19:10:40.503Z,21.90
2022-08-26T19:20:46.726Z,21.80
2022-08-26T19:30:53.104Z,21.70
2022-08-26T19:52:18.246Z,21.10
2022-08-26T20:02:20.350Z,20.90
2022-08-26T20:12:54.736Z,20.60
2022-08-26T20:22:57.002Z,20.50
2022-08-26T20:33:00.404Z,20.20
2022-08-26T20:43:02.405Z,19.90
2022-08-26T20:53:05.887Z,19.60
2022-08-26T21:03:07.924Z,19.50
2022-08-26T21:13:11.934Z,19.30
2022-08-26T21:23:13.910Z,19.20
2022-08-26T21:33:28.959Z,19.00
2022-08-26T21:43:46.632Z,18.80
2022-08-26T21:53:50.746Z,18.60
2022-08-26T22:03:53.312Z,18.40
2022-08-26T22:13:56.700Z,18.20
2022-08-26T22:23:58.866Z,18.00
2022-08-26T22:34:02.286Z,17.90
2022-08-26T22:44:04.495Z,17.70
2022-08-26T22:54:07.896Z,17.50
2022-08-26T23:04:10.109Z,17.30
2022-08-26T23:14:13.608Z,17.20
2022-08-26T23:24:16.075Z,17.00
2022-08-26T23:34:19.486Z,16.90
2022-08-26T23:44:21.608Z,16.70
2022-08-26T23:54:25.087Z,16.60
